createdAt,value
2023-03-28T00:00:31.678Z,2.40
2023-03-28T00:05:37.490Z,2.10
2023-03-28T00:10:41.156Z,1.70
2023-03-28T00:15:44.699Z,1.67
2023-03-28T00:20:49.687Z,1.37
2023-03-28T00:25:53.038Z,1.20
2023-03-28T00:31:04.198Z,1.00
2023-03-28T00:36:10.491Z,1.50
2023-03-28T00:41:16.177Z,1.50
2023-03-28T00:46:23.954Z,1.60
2023-03-28T00:51:33.286Z,1.10
2023-03-28T00:56:39.265Z,1.30
2023-03-28T01:01:42.704Z,1.30
2023-03-28T01:06:50.326Z,1.47
2023-03-28T01:11:55.080Z,1.47
2023-03-28T01:16:58.590Z,1.40
2023-03-28T01:22:39.402Z,1.30
2023-03-28T01:27:50.768Z,1.07
2023-03-28T01:33:45.173Z,0.90
2023-03-28T01:38:55.947Z,1.10
2023-03-28T01:44:06.504Z,1.13
2023-03-28T01:49:17.306Z,1.30
2023-03-28T01:54:31.535Z,1.30
2023-03-28T01:59:39.310Z,1.40
2023-03-28T02:04:45.367Z,1.80
2023-03-28T02:09:51.621Z,1.57
2023-03-28T02:14:58.019Z,1.40
2023-03-28T02:20:09.101Z,1.60
2023-03-28T02:25:14.069Z,1.60
2023-03-28T02:30:17.626Z,1.50
2023-03-28T02:35:28.083Z,2.10
2023-03-28T02:40:41.802Z,1.90
2023-03-28T02:46:13.713Z,1.90
2023-03-28T02:51:30.299Z,1.90
2023-03-28T02:56:43.151Z,1.70
2023-03-28T03:01:47.154Z,1.83
2023-03-28T03:06:51.018Z,1.77
2023-03-28T03:11:55.712Z,1.73
2023-03-28T03:16:59.199Z,2.20
2023-03-28T03:22:02.487Z,2.07
2023-03-28T03:27:07.215Z,2.13
2023-03-28T03:32:10.498Z,2.20
2023-03-28T03:37:14.477Z,2.47
2023-03-28T03:42:19.178Z,2.53
2023-03-28T03:47:22.435Z,2.60
2023-03-28T03:52:26.269Z,2.73
2023-03-28T03:57:30.983Z,2.87
2023-03-28T04:02:34.565Z,2.67
2023-03-28T04:07:38.080Z,3.03
2023-03-28T04:12:42.848Z,2.80
2023-03-28T04:17:46.329Z,3.20
2023-03-28T04:22:50.443Z,3.50
2023-03-28T04:27:55.948Z,3.10
2023-03-28T04:32:59.295Z,3.33
2023-03-28T04:38:02.852Z,3.00
2023-03-28T04:43:07.580Z,3.90
2023-03-28T04:48:10.914Z,4.23
2023-03-28T04:53:14.740Z,3.83
2023-03-28T04:58:20.702Z,3.80
2023-03-28T05:03:25.689Z,3.73
2023-03-28T05:08:29.412Z,3.43
2023-03-28T05:13:34.935Z,4.03
2023-03-28T05:18:38.338Z,4.20
2023-03-28T05:23:41.628Z,4.17
2023-03-28T05:28:46.746Z,4.30
2023-03-28T05:33:50.040Z,3.97
2023-03-28T05:38:53.328Z,3.87
2023-03-28T05:43:57.988Z,4.10
2023-03-28T05:49:01.236Z,4.37
2023-03-28T05:54:04.642Z,2.80
2023-03-28T05:59:09.340Z,2.80
2023-03-28T06:04:12.705Z,1.73
2023-03-28T06:09:16.729Z,1.20
2023-03-28T06:14:21.632Z,0.90
2023-03-28T06:19:25.450Z,1.13
2023-03-28T06:24:28.779Z,3.13
2023-03-28T06:29:33.491Z,2.60
2023-03-28T06:34:36.952Z,2.27
2023-03-28T06:39:40.554Z,1.60
2023-03-28T06:44:45.320Z,1.53
2023-03-28T06:49:48.612Z,1.37
2023-03-28T06:54:51.985Z,1.20
2023-03-28T06:59:56.734Z,1.53
2023-03-28T07:05:00.195Z,1.40
2023-03-28T07:10:03.496Z,0.90
2023-03-28T07:15:09.502Z,1.47
2023-03-28T07:20:13.077Z,1.07
2023-03-28T07:25:16.777Z,1.10
2023-03-28T07:30:21.672Z,1.10
2023-03-28T07:35:25.030Z,0.90
2023-03-28T07:40:28.386Z,1.57
2023-03-28T07:45:33.155Z,1.00
2023-03-28T07:50:36.824Z,0.70
2023-03-28T08:00:48.548Z,0.77
2023-03-28T08:05:52.687Z,0.80
2023-03-28T08:10:56.091Z,0.77
2023-03-28T08:16:00.970Z,0.80
2023-03-28T08:21:04.984Z,0.80
2023-03-28T08:26:08.798Z,0.80
2023-03-28T08:31:15.621Z,0.80
2023-03-28T08:36:19.782Z,0.90
2023-03-28T08:41:50.432Z,0.80
2023-03-28T08:46:58.926Z,0.80
2023-03-28T08:52:05.624Z,0.80
2023-03-28T08:57:16.890Z,0.93
2023-03-28T09:02:23.832Z,0.70
2023-03-28T09:07:37.194Z,0.70
2023-03-28T09:12:58.808Z,0.70
2023-03-28T09:18:25.855Z,0.80
2023-03-28T09:23:55.356Z,1.20
2023-03-28T09:29:03.578Z,1.00
2023-03-28T09:34:08.368Z,0.70
2023-03-28T09:39:17.631Z,0.87
2023-03-28T09:44:27.150Z,0.70
2023-03-28T09:49:31.866Z,1.03
2023-03-28T09:54:36.377Z,1.00
2023-03-28T09:59:39.918Z,0.93
2023-03-28T10:04:44.771Z,0.80
2023-03-28T10:09:49.745Z,0.97
2023-03-28T10:14:53.187Z,1.10
2023-03-28T10:20:06.245Z,0.83
2023-03-28T10:25:17.053Z,0.93
2023-03-28T10:30:25.694Z,1.10
2023-03-28T10:35:31.508Z,1.20
2023-03-28T10:40:34.898Z,1.27
2023-03-28T10:45:41.017Z,1.20
2023-03-28T10:50:48.168Z,0.90
2023-03-28T10:56:05.105Z,1.00
2023-03-28T11:01:18.382Z,0.90
2023-03-28T11:06:28.631Z,1.00
2023-03-28T11:11:45.072Z,1.00
2023-03-28T11:16:59.436Z,1.20
2023-03-28T11:22:11.995Z,1.13
2023-03-28T11:27:21.840Z,0.73
2023-03-28T11:32:30.293Z,0.90
2023-03-28T11:37:42.484Z,1.00
2023-03-28T11:42:52.502Z,1.20
2023-03-28T11:48:06.403Z,0.93
2023-03-28T11:53:17.232Z,0.80
2023-03-28T11:58:26.298Z,0.83
2023-03-28T12:03:37.798Z,1.20
2023-03-28T12:08:48.896Z,1.10
2023-03-28T12:14:08.869Z,0.83
2023-03-28T12:19:18.629Z,1.10
2023-03-28T12:24:29.947Z,0.90
2023-03-28T12:29:43.298Z,1.00
2023-03-28T12:34:54.365Z,0.90
2023-03-28T12:40:13.040Z,1.00
2023-03-28T12:45:22.500Z,1.00
2023-03-28T12:50:32.147Z,1.17
2023-03-28T12:55:48.652Z,1.20
2023-03-28T13:01:20.129Z,1.00
2023-03-28T13:06:33.854Z,0.80
2023-03-28T13:11:46.853Z,1.13
2023-03-28T13:16:58.076Z,1.10
2023-03-28T13:22:01.623Z,0.90
2023-03-28T13:27:13.990Z,1.03
2023-03-28T13:32:19.397Z,1.23
2023-03-28T13:37:24.847Z,1.10
2023-03-28T13:42:32.436Z,0.90
2023-03-28T13:47:41.427Z,1.00
2023-03-28T13:52:46.389Z,0.90
2023-03-28T13:57:51.833Z,1.17
2023-03-28T14:03:01.773Z,0.80
2023-03-28T14:08:22.260Z,1.20
2023-03-28T14:13:30.266Z,1.10
2023-03-28T14:18:37.214Z,0.90
2023-03-28T14:23:42.529Z,1.10
2023-03-28T14:28:48.137Z,1.00
2023-03-28T14:33:52.935Z,1.10
2023-03-28T14:39:04.922Z,0.73
2023-03-28T14:44:09.691Z,0.90
2023-03-28T14:49:20.057Z,1.10
2023-03-28T14:54:27.829Z,0.70
2023-03-28T14:59:41.324Z,0.80
2023-03-28T15:04:47.513Z,0.60
2023-03-28T15:10:07.598Z,0.87
2023-03-28T15:15:20.495Z,0.60
2023-03-28T15:20:28.887Z,0.93
2023-03-28T15:25:33.374Z,1.27
2023-03-28T15:30:43.027Z,0.80
2023-03-28T15:35:47.014Z,0.80
2023-03-28T15:40:51.934Z,0.90
2023-03-28T15:45:58.599Z,0.90
2023-03-28T15:51:05.907Z,1.03
2023-03-28T15:56:14.021Z,0.97
2023-03-28T16:01:24.787Z,1.20
2023-03-28T16:06:32.034Z,1.13
2023-03-28T16:11:37.229Z,1.50
2023-03-28T16:16:42.336Z,1.20
2023-03-28T16:21:46.094Z,1.57
2023-03-28T16:26:49.831Z,0.80
2023-03-28T16:31:54.638Z,1.67
2023-03-28T16:36:58.181Z,1.20
2023-03-28T16:42:01.775Z,1.80
2023-03-28T16:47:07.040Z,2.67
2023-03-28T16:52:10.769Z,1.93
2023-03-28T16:57:14.934Z,1.80
2023-03-28T17:02:20.152Z,1.70
2023-03-28T17:07:23.841Z,1.33
2023-03-28T17:12:29.627Z,1.63
2023-03-28T17:17:34.561Z,1.50
2023-03-28T17:22:38.926Z,1.60
2023-03-28T17:27:42.715Z,1.30
2023-03-28T17:32:48.564Z,1.70
2023-03-28T17:37:53.353Z,1.30
2023-03-28T17:42:58.403Z,1.50
2023-03-28T17:48:03.877Z,2.47
2023-03-28T17:53:08.736Z,1.60
2023-03-28T17:58:14.974Z,1.70
2023-03-28T18:03:27.625Z,1.90
2023-03-28T18:08:33.313Z,1.53
2023-03-28T18:13:38.388Z,1.90
2023-03-28T18:18:45.449Z,2.20
2023-03-28T18:23:51.969Z,1.60
2023-03-28T18:28:56.850Z,1.80
2023-03-28T18:34:05.683Z,1.70
2023-03-28T18:39:10.693Z,1.70
2023-03-28T18:44:14.940Z,1.47
2023-03-28T18:49:21.645Z,1.43
2023-03-28T18:54:28.339Z,1.30
2023-03-28T18:59:36.114Z,1.40
2023-03-28T19:04:42.386Z,1.30
2023-03-28T19:09:47.650Z,1.20
2023-03-28T19:14:53.652Z,1.40
2023-03-28T19:20:06.231Z,1.00
2023-03-28T19:25:12.356Z,1.07
2023-03-28T19:30:18.137Z,1.20
2023-03-28T19:35:28.069Z,1.07
2023-03-28T19:40:36.130Z,1.20
2023-03-28T19:45:42.987Z,1.50
2023-03-28T19:50:51.364Z,1.27
2023-03-28T19:55:57.103Z,1.50
2023-03-28T20:01:01.671Z,1.50
2023-03-28T20:06:10.844Z,1.73
2023-03-28T20:11:16.588Z,1.57
2023-03-28T20:16:21.183Z,1.33
2023-03-28T20:21:30.709Z,1.50
2023-03-28T20:26:37.047Z,1.50
2023-03-28T20:31:41.160Z,1.77
2023-03-28T20:36:50.033Z,1.40
2023-03-28T20:41:54.070Z,1.50
2023-03-28T20:46:58.290Z,1.20
2023-03-28T20:52:03.352Z,1.00
2023-03-28T20:57:06.901Z,1.40
2023-03-28T21:02:10.986Z,1.00
2023-03-28T21:07:15.925Z,1.53
2023-03-28T21:12:19.302Z,1.10
2023-03-28T21:17:25.461Z,1.27
2023-03-28T21:22:30.192Z,1.20
2023-03-28T21:27:34.727Z,1.30
2023-03-28T21:32:38.110Z,1.50
2023-03-28T21:37:43.308Z,1.10
2023-03-28T21:42:47.006Z,1.30
2023-03-28T21:47:51.392Z,1.33
2023-03-28T21:52:56.238Z,1.37
2023-03-28T21:57:59.538Z,1.30
2023-03-28T22:03:02.890Z,1.40
2023-03-28T22:08:08.760Z,1.40
2023-03-28T22:13:12.145Z,1.40
2023-03-28T22:18:15.898Z,1.40
2023-03-28T22:23:20.924Z,1.60
2023-03-28T22:28:24.960Z,1.17
2023-03-28T22:38:58.171Z,1.27
2023-03-28T22:44:01.459Z,1.40
2023-03-28T22:49:04.744Z,1.70
2023-03-28T22:54:09.459Z,1.70
2023-03-28T22:59:13.004Z,2.20
2023-03-28T23:04:16.340Z,1.90
2023-03-28T23:09:22.106Z,2.10
2023-03-28T23:14:25.532Z,2.40
2023-03-28T23:19:31.272Z,1.93
2023-03-28T23:24:37.068Z,2.40
2023-03-28T23:29:40.366Z,2.40
2023-03-28T23:34:43.667Z,2.50
2023-03-28T23:39:48.386Z,2.33
2023-03-28T23:44:51.915Z,2.47
2023-03-28T23:49:55.210Z,2.87
2023-03-28T23:54:59.966Z,2.00
